createdAt,value
2019-01-15T00:01:27.789Z,2.90
2019-01-15T00:03:56.828Z,2.90
2019-01-15T00:06:25.707Z,2.90
2019-01-15T00:09:13.823Z,3.00
2019-01-15T00:12:07.856Z,3.00
2019-01-15T00:14:44.936Z,3.00
2019-01-15T00:17:26.193Z,3.00
2019-01-15T00:20:07.095Z,3.00
2019-01-15T00:22:47.740Z,3.10
2019-01-15T00:25:28.439Z,3.10
2019-01-15T00:28:09.145Z,3.10
2019-01-15T00:30:38.465Z,3.20
2019-01-15T00:33:26.551Z,3.20
2019-01-15T00:36:07.640Z,3.10
2019-01-15T00:38:36.438Z,3.10
2019-01-15T00:41:24.655Z,3.10
2019-01-15T00:44:12.741Z,3.10
2019-01-15T00:46:54.060Z,3.10
2019-01-15T00:49:34.649Z,3.10
2019-01-15T00:52:15.706Z,3.20
2019-01-15T00:54:56.228Z,3.20
2019-01-15T00:57:37.247Z,3.20
2019-01-15T01:00:17.727Z,3.20
2019-01-15T01:02:58.633Z,3.20
2019-01-15T01:05:39.145Z,3.10
2019-01-15T01:08:19.987Z,3.10
2019-01-15T01:11:00.680Z,3.20
2019-01-15T01:13:41.489Z,3.10
2019-01-15T01:16:22.161Z,3.20
2019-01-15T01:19:02.832Z,3.20
2019-01-15T01:21:31.701Z,3.20
2019-01-15T01:24:19.835Z,3.20
2019-01-15T01:27:01.032Z,3.30
2019-01-15T01:29:41.692Z,3.30
2019-01-15T01:32:22.203Z,3.20
2019-01-15T01:35:03.477Z,3.10
2019-01-15T01:37:44.428Z,3.20
2019-01-15T01:40:16.019Z,3.20
2019-01-15T01:43:04.231Z,3.20
2019-01-15T01:45:52.209Z,3.20
2019-01-15T01:48:32.564Z,3.20
2019-01-15T01:51:01.475Z,3.30
2019-01-15T01:53:49.486Z,3.40
2019-01-15T01:56:37.602Z,3.30
2019-01-15T01:59:16.832Z,3.30
2019-01-15T02:01:45.807Z,3.40
2019-01-15T02:04:52.876Z,3.40
2019-01-15T02:07:33.972Z,3.40
2019-01-15T02:10:14.601Z,3.30
2019-01-15T02:12:55.317Z,3.40
2019-01-15T02:15:25.061Z,3.40
2019-01-15T02:18:13.280Z,3.40
2019-01-15T02:20:42.191Z,3.40
2019-01-15T02:23:30.271Z,3.40
2019-01-15T02:26:11.043Z,3.40
2019-01-15T02:28:40.005Z,3.40
2019-01-15T02:31:28.075Z,3.40
2019-01-15T02:34:16.335Z,3.40
2019-01-15T02:36:57.063Z,3.50
2019-01-15T02:39:26.086Z,3.40
2019-01-15T02:42:14.149Z,3.50
2019-01-15T02:45:02.531Z,3.50
2019-01-15T02:47:43.314Z,3.60
2019-01-15T02:50:24.560Z,3.60
2019-01-15T02:53:05.519Z,3.60
2019-01-15T02:55:46.273Z,3.60
2019-01-15T02:58:27.244Z,3.70
2019-01-15T03:01:07.936Z,3.70
2019-01-15T03:03:48.860Z,3.80
2019-01-15T03:06:29.536Z,3.70
2019-01-15T03:09:10.950Z,3.80
2019-01-15T03:11:51.622Z,3.90
2019-01-15T03:14:32.020Z,3.90
2019-01-15T03:17:12.917Z,3.90
2019-01-15T03:19:53.424Z,4.00
2019-01-15T03:22:34.208Z,4.00
2019-01-15T03:25:15.527Z,4.10
2019-01-15T03:27:57.020Z,4.10
2019-01-15T03:30:25.974Z,4.20
2019-01-15T03:33:14.208Z,4.10
2019-01-15T03:35:55.045Z,4.10
2019-01-15T03:38:24.047Z,4.10
2019-01-15T03:41:12.264Z,4.10
2019-01-15T03:43:41.240Z,4.10
2019-01-15T03:46:29.264Z,4.00
2019-01-15T03:49:09.745Z,4.00
2019-01-15T03:51:50.937Z,4.10
2019-01-15T03:54:32.140Z,4.10
2019-01-15T03:57:12.756Z,4.10
2019-01-15T03:59:41.780Z,4.10
2019-01-15T04:05:28.760Z,4.20
2019-01-15T04:08:10.027Z,4.20
2019-01-15T04:14:03.428Z,4.20
2019-01-15T04:16:42.491Z,4.30
2019-01-15T04:19:23.749Z,4.30
2019-01-15T04:22:04.828Z,4.40
2019-01-15T04:24:45.642Z,4.40
2019-01-15T04:27:26.124Z,4.40
2019-01-15T04:30:06.915Z,4.40
2019-01-15T04:32:48.180Z,4.50
2019-01-15T04:35:28.674Z,4.50
2019-01-15T04:38:09.585Z,4.50
2019-01-15T04:40:50.623Z,4.50
2019-01-15T04:43:29.782Z,4.60
2019-01-15T04:46:17.876Z,4.60
2019-01-15T04:48:58.625Z,4.60
2019-01-15T04:51:39.683Z,4.60
2019-01-15T04:54:20.063Z,4.60
2019-01-15T04:56:49.136Z,4.60
2019-01-15T05:02:40.363Z,4.70
2019-01-15T05:05:21.242Z,4.70
2019-01-15T05:08:01.981Z,4.70
2019-01-15T05:10:42.477Z,4.80
2019-01-15T05:13:27.464Z,4.80
2019-01-15T05:16:06.470Z,4.80
2019-01-15T05:18:47.397Z,4.90
2019-01-15T05:21:27.987Z,4.90
2019-01-15T05:23:56.947Z,4.90
2019-01-15T05:29:25.337Z,4.90
2019-01-15T05:32:05.828Z,4.90
2019-01-15T05:34:46.773Z,4.90
2019-01-15T05:37:15.656Z,4.90
2019-01-15T05:39:57.872Z,5.00
2019-01-15T05:42:38.972Z,5.00
2019-01-15T05:45:22.629Z,5.10
2019-01-15T05:54:14.045Z,5.10
2019-01-15T05:56:54.741Z,5.20
2019-01-15T05:59:35.868Z,5.20
2019-01-15T06:02:16.733Z,5.20
2019-01-15T06:04:57.391Z,5.20
2019-01-15T06:07:33.414Z,5.20
2019-01-15T06:10:16.349Z,5.20
2019-01-15T06:12:57.279Z,5.20
2019-01-15T06:15:37.949Z,5.30
2019-01-15T06:18:19.276Z,5.30
2019-01-15T06:21:00.179Z,5.30
2019-01-15T06:23:28.977Z,5.30
2019-01-15T06:26:17.192Z,5.40
2019-01-15T06:28:58.635Z,5.40
2019-01-15T06:31:39.645Z,5.40
2019-01-15T06:34:20.257Z,5.30
2019-01-15T06:37:01.442Z,5.30
2019-01-15T06:39:41.998Z,5.40
2019-01-15T06:42:24.308Z,5.50
2019-01-15T06:45:05.612Z,5.40
2019-01-15T06:47:46.484Z,5.40
2019-01-15T06:53:26.855Z,5.30
2019-01-15T06:56:07.578Z,5.30
2019-01-15T06:58:48.452Z,5.30
2019-01-15T07:01:29.629Z,5.40
2019-01-15T07:04:10.574Z,5.30
2019-01-15T07:06:51.097Z,5.30
2019-01-15T07:09:32.681Z,5.30
2019-01-15T07:12:13.529Z,5.30
2019-01-15T07:14:54.737Z,5.30
2019-01-15T07:17:35.813Z,5.40
2019-01-15T07:20:16.981Z,5.50
2019-01-15T07:22:58.268Z,5.50
2019-01-15T07:25:39.777Z,5.50
2019-01-15T07:28:20.733Z,5.60
2019-01-15T07:30:55.164Z,5.50
2019-01-15T07:33:43.157Z,5.60
2019-01-15T07:36:31.448Z,5.60
2019-01-15T07:39:12.520Z,5.70
2019-01-15T07:41:53.233Z,5.70
2019-01-15T07:44:33.675Z,5.70
2019-01-15T07:47:14.417Z,5.70
2019-01-15T07:49:54.723Z,5.70
2019-01-15T07:52:35.353Z,5.60
2019-01-15T07:55:15.743Z,5.70
2019-01-15T07:57:57.768Z,5.70
2019-01-15T08:00:38.438Z,5.80
2019-01-15T08:03:19.414Z,5.90
2019-01-15T08:05:48.305Z,5.90
2019-01-15T08:08:36.685Z,5.90
2019-01-15T08:11:17.541Z,6.00
2019-01-15T08:13:58.761Z,6.00
2019-01-15T08:16:39.647Z,6.10
2019-01-15T08:19:20.389Z,6.20
2019-01-15T08:22:01.148Z,6.20
2019-01-15T08:24:42.525Z,6.30
2019-01-15T08:27:23.400Z,6.30
2019-01-15T08:30:04.324Z,6.40
2019-01-15T08:32:43.477Z,6.40
2019-01-15T08:35:31.812Z,6.40
2019-01-15T08:38:12.665Z,6.40
2019-01-15T08:40:53.224Z,6.50
2019-01-15T08:43:34.084Z,6.50
2019-01-15T08:46:15.057Z,6.60
2019-01-15T08:48:55.550Z,6.60
2019-01-15T08:51:36.755Z,6.70
2019-01-15T08:54:17.660Z,6.70
2019-01-15T08:56:58.094Z,6.80
2019-01-15T08:59:39.243Z,6.80
2019-01-15T09:02:20.102Z,6.80
2019-01-15T09:08:00.020Z,6.90
2019-01-15T09:10:40.689Z,6.90
2019-01-15T09:13:21.172Z,6.90
2019-01-15T09:16:01.987Z,6.90
2019-01-15T09:18:42.605Z,6.90
2019-01-15T09:21:23.253Z,7.00
2019-01-15T09:24:03.864Z,7.00
2019-01-15T09:26:44.325Z,7.00
2019-01-15T09:29:25.266Z,7.10
2019-01-15T09:32:06.511Z,7.10
2019-01-15T09:34:47.609Z,7.10
2019-01-15T09:37:29.120Z,7.20
2019-01-15T09:40:10.517Z,7.20
2019-01-15T09:42:51.381Z,7.20
2019-01-15T09:45:32.058Z,7.20
2019-01-15T09:48:16.505Z,7.20
2019-01-15T09:50:57.722Z,7.30
2019-01-15T09:53:38.211Z,7.30
2019-01-15T09:56:19.158Z,7.30
2019-01-15T09:59:00.590Z,7.40
2019-01-15T10:01:41.188Z,7.40
2019-01-15T10:04:21.835Z,7.40
2019-01-15T10:07:02.521Z,7.40
2019-01-15T10:09:42.987Z,7.50
2019-01-15T10:12:23.820Z,7.50
2019-01-15T10:14:52.835Z,7.50
2019-01-15T10:17:41.025Z,7.50
2019-01-15T10:20:29.023Z,7.50
2019-01-15T10:23:10.109Z,7.50
2019-01-15T10:25:50.594Z,7.50
2019-01-15T10:31:30.534Z,7.60
2019-01-15T10:34:11.530Z,7.60
2019-01-15T10:36:52.324Z,7.60
2019-01-15T10:39:33.300Z,7.60
2019-01-15T10:42:13.880Z,7.60
2019-01-15T10:44:55.087Z,7.60
2019-01-15T10:47:36.219Z,7.60
2019-01-15T10:50:16.670Z,7.60
2019-01-15T10:52:57.474Z,7.60
2019-01-15T10:55:38.833Z,7.70
2019-01-15T10:58:19.592Z,7.70
2019-01-15T11:01:00.265Z,7.70
2019-01-15T11:03:41.351Z,7.80
2019-01-15T11:06:22.881Z,7.80
2019-01-15T11:09:05.716Z,7.90
2019-01-15T11:11:46.813Z,7.90
2019-01-15T11:14:28.101Z,7.90
2019-01-15T11:17:09.465Z,7.90
2019-01-15T11:19:41.362Z,7.90
2019-01-15T11:22:30.273Z,8.00
2019-01-15T11:25:21.131Z,7.90
2019-01-15T11:28:02.114Z,7.90
2019-01-15T11:30:43.694Z,7.90
2019-01-15T11:33:24.689Z,7.90
2019-01-15T11:35:53.894Z,7.90
2019-01-15T11:39:00.961Z,7.90
2019-01-15T11:41:49.241Z,7.80
2019-01-15T11:44:29.807Z,7.90
2019-01-15T11:47:10.412Z,7.90
2019-01-15T11:49:50.885Z,7.90
2019-01-15T11:52:31.689Z,7.80
2019-01-15T11:55:12.600Z,7.90
2019-01-15T11:57:53.155Z,7.90
2019-01-15T12:00:40.445Z,7.90
2019-01-15T12:03:26.797Z,7.90
2019-01-15T12:06:32.675Z,7.90
2019-01-15T12:09:32.526Z,7.90
2019-01-15T12:12:11.041Z,7.90
2019-01-15T12:15:11.383Z,8.00
2019-01-15T12:18:03.700Z,8.00
2019-01-15T12:21:03.876Z,8.10
2019-01-15T12:23:51.888Z,8.10
2019-01-15T12:26:59.165Z,8.10
2019-01-15T12:29:58.669Z,8.20
2019-01-15T12:32:58.309Z,8.20
2019-01-15T12:35:53.700Z,8.20
2019-01-15T12:38:54.060Z,8.20
2019-01-15T12:41:49.248Z,8.30
2019-01-15T12:44:34.969Z,8.20
2019-01-15T12:47:35.096Z,8.30
2019-01-15T12:50:33.184Z,8.30
2019-01-15T12:53:34.250Z,8.30
2019-01-15T12:56:33.561Z,8.30
2019-01-15T12:59:33.421Z,8.40
2019-01-15T13:02:21.778Z,8.40
2019-01-15T13:05:24.560Z,8.40
2019-01-15T13:08:18.881Z,8.40
2019-01-15T13:11:12.408Z,8.40
2019-01-15T13:14:04.402Z,8.40
2019-01-15T13:17:07.405Z,8.50
2019-01-15T13:20:07.693Z,8.50
2019-01-15T13:23:10.590Z,8.50
2019-01-15T13:26:01.113Z,8.50
2019-01-15T13:29:03.667Z,8.60
2019-01-15T13:31:52.252Z,8.50
2019-01-15T13:34:46.077Z,8.50
2019-01-15T13:37:51.884Z,8.50
2019-01-15T13:40:59.103Z,8.50
2019-01-15T13:43:59.207Z,8.50
2019-01-15T13:46:47.094Z,8.50
2019-01-15T13:49:54.690Z,8.50
2019-01-15T13:53:01.752Z,8.50
2019-01-15T13:56:01.900Z,8.50
2019-01-15T13:59:04.222Z,8.50
2019-01-15T14:02:07.086Z,8.50
2019-01-15T14:05:06.941Z,8.60
2019-01-15T14:07:47.795Z,8.60
2019-01-15T14:10:55.225Z,8.60
2019-01-15T14:13:54.722Z,8.70
2019-01-15T14:16:54.870Z,8.70
2019-01-15T14:19:54.319Z,8.60
2019-01-15T14:22:47.089Z,8.60
2019-01-15T14:25:46.973Z,8.60
2019-01-15T14:31:40.759Z,8.60
2019-01-15T14:34:40.680Z,8.70
2019-01-15T14:37:41.174Z,8.70
2019-01-15T14:40:41.419Z,8.70
2019-01-15T14:43:40.048Z,8.60
2019-01-15T14:46:39.844Z,8.70
2019-01-15T14:49:33.654Z,8.60
2019-01-15T14:52:34.986Z,8.60
2019-01-15T14:55:35.121Z,8.60
2019-01-15T14:58:40.399Z,8.50
2019-01-15T15:01:35.072Z,8.50
2019-01-15T15:07:27.511Z,8.50
2019-01-15T15:10:34.584Z,8.50
2019-01-15T15:13:34.232Z,8.50
2019-01-15T15:16:34.073Z,8.50
2019-01-15T15:19:22.524Z,8.50
2019-01-15T15:22:28.257Z,8.50
2019-01-15T15:25:31.734Z,8.50
2019-01-15T15:28:31.716Z,8.50
2019-01-15T15:31:31.153Z,8.50
2019-01-15T15:34:30.192Z,8.50
2019-01-15T15:37:30.462Z,8.50
2019-01-15T15:40:30.321Z,8.50
2019-01-15T15:43:24.213Z,8.50
2019-01-15T15:46:12.567Z,8.60
2019-01-15T15:49:20.377Z,8.50
2019-01-15T15:52:08.464Z,8.50
2019-01-15T15:55:15.552Z,8.50
2019-01-15T15:58:10.103Z,8.50
2019-01-15T16:01:10.347Z,8.40
2019-01-15T16:04:04.079Z,8.40
2019-01-15T16:06:54.493Z,8.40
2019-01-15T16:09:42.369Z,8.40
2019-01-15T16:12:33.243Z,8.40
2019-01-15T16:15:21.296Z,8.40
2019-01-15T16:18:18.898Z,8.40
2019-01-15T16:21:11.651Z,8.30
2019-01-15T16:23:53.565Z,8.30
2019-01-15T16:26:37.264Z,8.30
2019-01-15T16:29:24.141Z,8.30
2019-01-15T16:32:15.078Z,8.30
2019-01-15T16:34:51.604Z,8.30
2019-01-15T16:37:41.756Z,8.30
2019-01-15T16:40:28.719Z,8.30
2019-01-15T16:43:28.601Z,8.30
2019-01-15T16:46:13.254Z,8.20
2019-01-15T16:49:01.157Z,8.20
2019-01-15T16:51:42.741Z,8.20
2019-01-15T16:54:29.672Z,8.20
2019-01-15T16:57:11.559Z,8.20
2019-01-15T16:59:50.097Z,8.20
2019-01-15T17:02:52.975Z,8.30
2019-01-15T17:05:43.445Z,8.20
2019-01-15T17:08:36.544Z,8.20
2019-01-15T17:11:16.465Z,8.20
2019-01-15T17:13:56.311Z,8.20
2019-01-15T17:16:43.515Z,8.20
2019-01-15T17:19:40.524Z,8.20
2019-01-15T17:22:27.231Z,8.30
2019-01-15T17:25:16.418Z,8.30
2019-01-15T17:28:00.577Z,8.20
2019-01-15T17:30:41.561Z,8.20
2019-01-15T17:33:21.257Z,8.20
2019-01-15T17:36:09.679Z,8.20
2019-01-15T17:38:59.297Z,8.20
2019-01-15T17:41:45.660Z,8.20
2019-01-15T17:44:22.861Z,8.20
2019-01-15T17:47:09.422Z,8.20
2019-01-15T17:49:55.792Z,8.20
2019-01-15T17:52:43.701Z,8.20
2019-01-15T17:55:40.776Z,8.20
2019-01-15T17:58:31.424Z,8.20
2019-01-15T18:01:15.753Z,8.20
2019-01-15T18:04:06.806Z,8.20
2019-01-15T18:06:54.707Z,8.20
2019-01-15T18:09:40.059Z,8.20
2019-01-15T18:12:28.621Z,8.20
2019-01-15T18:15:07.943Z,8.20
2019-01-15T18:17:54.605Z,8.20
2019-01-15T18:20:45.916Z,8.20
2019-01-15T18:23:32.647Z,8.20
2019-01-15T18:26:31.791Z,8.20
2019-01-15T18:29:19.673Z,8.20
2019-01-15T18:32:06.168Z,8.10
2019-01-15T18:34:54.304Z,8.20
2019-01-15T18:37:48.168Z,8.20
2019-01-15T18:40:40.744Z,8.10
2019-01-15T18:43:31.857Z,8.20
2019-01-15T18:46:18.424Z,8.10
2019-01-15T18:49:03.363Z,8.20
2019-01-15T18:52:03.375Z,8.20
2019-01-15T18:55:06.429Z,8.10
2019-01-15T18:57:57.400Z,8.20
2019-01-15T19:00:54.004Z,8.20
2019-01-15T19:03:44.437Z,8.20
2019-01-15T19:06:31.377Z,8.20
2019-01-15T19:09:27.801Z,8.20
2019-01-15T19:12:14.485Z,8.20
2019-01-15T19:15:11.915Z,8.20
2019-01-15T19:18:11.600Z,8.20
2019-01-15T19:21:05.591Z,8.20
2019-01-15T19:24:05.699Z,8.20
2019-01-15T19:26:41.375Z,8.20
2019-01-15T19:29:32.342Z,8.20
2019-01-15T19:32:19.137Z,8.20
2019-01-15T19:35:03.665Z,8.10
2019-01-15T19:37:50.277Z,8.10
2019-01-15T19:40:37.184Z,8.10
2019-01-15T19:43:15.146Z,8.10
2019-01-15T19:46:01.446Z,8.20
2019-01-15T19:48:45.025Z,8.20
2019-01-15T19:51:33.281Z,8.20
2019-01-15T19:54:22.657Z,8.20
2019-01-15T19:57:14.426Z,8.20
2019-01-15T20:00:01.027Z,8.20
2019-01-15T20:02:48.033Z,8.20
2019-01-15T20:05:34.374Z,8.20
2019-01-15T20:08:22.452Z,8.20
2019-01-15T20:11:14.066Z,8.20
2019-01-15T20:14:21.392Z,8.20
2019-01-15T20:17:18.069Z,8.20
2019-01-15T20:19:52.633Z,8.20
2019-01-15T20:22:30.508Z,8.20
2019-01-15T20:25:09.112Z,8.20
2019-01-15T20:27:59.098Z,8.20
2019-01-15T20:30:47.211Z,8.20
2019-01-15T20:33:27.144Z,8.20
2019-01-15T20:36:07.873Z,8.20
2019-01-15T20:38:46.337Z,8.20
2019-01-15T20:41:33.393Z,8.10
2019-01-15T20:44:30.352Z,8.10
2019-01-15T20:47:25.696Z,8.10
2019-01-15T20:50:19.673Z,8.10
2019-01-15T20:53:05.833Z,8.10
2019-01-15T20:55:52.732Z,8.10
2019-01-15T20:58:34.321Z,8.10
2019-01-15T21:01:14.449Z,8.10
2019-01-15T21:04:04.654Z,8.10
2019-01-15T21:06:51.296Z,8.10
2019-01-15T21:09:48.118Z,8.10
2019-01-15T21:12:34.774Z,8.10
2019-01-15T21:15:21.584Z,8.10
2019-01-15T21:18:05.081Z,8.10
2019-01-15T21:21:11.145Z,8.10
2019-01-15T21:24:14.045Z,8.10
2019-01-15T21:27:00.504Z,8.10
2019-01-15T21:30:00.286Z,8.10
2019-01-15T21:32:43.289Z,8.10
2019-01-15T21:35:29.005Z,8.10
2019-01-15T21:38:15.610Z,8.10
2019-01-15T21:41:02.321Z,8.20
2019-01-15T21:43:53.299Z,8.10
2019-01-15T21:46:41.331Z,8.10
2019-01-15T21:49:25.646Z,8.10
2019-01-15T21:52:10.016Z,8.10
2019-01-15T21:55:04.088Z,8.10
2019-01-15T21:57:52.127Z,8.10
2019-01-15T22:00:52.903Z,8.00
2019-01-15T22:03:53.144Z,8.00
2019-01-15T22:06:45.695Z,8.00
2019-01-15T22:09:36.662Z,8.00
2019-01-15T22:12:21.760Z,8.00
2019-01-15T22:15:02.313Z,8.00
2019-01-15T22:17:55.742Z,8.00
2019-01-15T22:21:01.952Z,8.00
2019-01-15T22:23:45.830Z,8.00
2019-01-15T22:26:34.894Z,8.00
2019-01-15T22:29:26.025Z,8.00
2019-01-15T22:32:11.450Z,8.00
2019-01-15T22:35:17.583Z,8.00
2019-01-15T22:38:04.339Z,8.00
2019-01-15T22:40:50.611Z,8.00
2019-01-15T22:43:38.596Z,8.00
2019-01-15T22:46:32.304Z,8.00
2019-01-15T22:49:13.168Z,8.00
2019-01-15T22:52:07.204Z,8.00
2019-01-15T22:54:59.510Z,8.00
2019-01-15T22:57:51.343Z,8.00
2019-01-15T23:01:00.669Z,8.00
2019-01-15T23:03:41.730Z,8.00
2019-01-15T23:06:30.426Z,8.00
2019-01-15T23:09:24.213Z,8.00
2019-01-15T23:12:10.816Z,8.10
2019-01-15T23:14:54.689Z,8.00
2019-01-15T23:17:41.284Z,8.00
2019-01-15T23:20:28.088Z,8.10
2019-01-15T23:23:31.516Z,8.10
2019-01-15T23:26:14.800Z,8.10
2019-01-15T23:29:01.572Z,8.00
2019-01-15T23:31:41.072Z,8.00
2019-01-15T23:34:30.337Z,8.10
2019-01-15T23:37:15.444Z,8.10
2019-01-15T23:40:02.053Z,8.10
2019-01-15T23:42:50.199Z,8.10
2019-01-15T23:45:38.285Z,8.10
2019-01-15T23:48:38.329Z,8.10
2019-01-15T23:51:29.411Z,8.10
2019-01-15T23:54:16.116Z,8.20
2019-01-15T23:57:08.385Z,8.20
